sensor_id;sensor_type;location;lat;lon;timestamp;temperature;humidity
15609;DHT22;28705;45.642;13.758;2022-07-29T00:01:16;29.30;47.90
15609;DHT22;28705;45.642;13.758;2022-07-29T00:03:43;29.20;47.70
15609;DHT22;28705;45.642;13.758;2022-07-29T00:06:10;29.20;47.80
15609;DHT22;28705;45.642;13.758;2022-07-29T00:08:37;29.20;47.90
15609;DHT22;28705;45.642;13.758;2022-07-29T00:11:04;29.20;48.00
15609;DHT22;28705;45.642;13.758;2022-07-29T00:13:31;29.20;47.90
15609;DHT22;28705;45.642;13.758;2022-07-29T00:15:58;29.20;47.90
15609;DHT22;28705;45.642;13.758;2022-07-29T00:18:26;29.20;47.90
15609;DHT22;28705;45.642;13.758;2022-07-29T00:20:54;29.20;48.00
15609;DHT22;28705;45.642;13.758;2022-07-29T00:23:21;29.20;47.80
15609;DHT22;28705;45.642;13.758;2022-07-29T00:25:48;29.20;48.00
15609;DHT22;28705;45.642;13.758;2022-07-29T00:28:14;29.20;47.70
15609;DHT22;28705;45.642;13.758;2022-07-29T00:30:44;29.20;47.70
15609;DHT22;28705;45.642;13.758;2022-07-29T00:33:11;29.20;47.90
15609;DHT22;28705;45.642;13.758;2022-07-29T00:35:39;29.20;48.00
15609;DHT22;28705;45.642;13.758;2022-07-29T00:38:12;29.10;47.60
15609;DHT22;28705;45.642;13.758;2022-07-29T00:40:39;29.20;47.60
15609;DHT22;28705;45.642;13.758;2022-07-29T00:43:06;29.20;47.60
15609;DHT22;28705;45.642;13.758;2022-07-29T00:45:33;29.20;47.70
15609;DHT22;28705;45.642;13.758;2022-07-29T00:48:00;29.20;47.80
15609;DHT22;28705;45.642;13.758;2022-07-29T00:50:29;29.10;47.80
15609;DHT22;28705;45.642;13.758;2022-07-29T00:52:57;29.10;47.90
15609;DHT22;28705;45.642;13.758;2022-07-29T00:55:24;29.10;47.80
15609;DHT22;28705;45.642;13.758;2022-07-29T00:57:52;29.00;48.00
15609;DHT22;28705;45.642;13.758;2022-07-29T01:00:21;29.10;48.20
15609;DHT22;28705;45.642;13.758;2022-07-29T01:02:49;29.00;48.20
15609;DHT22;28705;45.642;13.758;2022-07-29T01:05:18;29.00;48.40
15609;DHT22;28705;45.642;13.758;2022-07-29T01:07:46;29.00;48.70
15609;DHT22;28705;45.642;13.758;2022-07-29T01:10:15;28.90;48.70
15609;DHT22;28705;45.642;13.758;2022-07-29T01:12:43;28.90;48.80
15609;DHT22;28705;45.642;13.758;2022-07-29T01:15:11;28.80;48.80
15609;DHT22;28705;45.642;13.758;2022-07-29T01:17:43;28.80;48.90
15609;DHT22;28705;45.642;13.758;2022-07-29T01:20:20;28.80;49.00
15609;DHT22;28705;45.642;13.758;2022-07-29T01:23:11;28.80;48.90
15609;DHT22;28705;45.642;13.758;2022-07-29T01:25:58;28.80;49.00
15609;DHT22;28705;45.642;13.758;2022-07-29T01:29:02;28.80;49.00
15609;DHT22;28705;45.642;13.758;2022-07-29T01:31:35;28.80;48.90
15609;DHT22;28705;45.642;13.758;2022-07-29T01:34:07;28.80;48.80
15609;DHT22;28705;45.642;13.758;2022-07-29T01:36:37;28.80;48.70
15609;DHT22;28705;45.642;13.758;2022-07-29T01:39:10;28.70;48.70
15609;DHT22;28705;45.642;13.758;2022-07-29T01:41:40;28.70;48.70
15609;DHT22;28705;45.642;13.758;2022-07-29T01:44:16;28.70;48.70
15609;DHT22;28705;45.642;13.758;2022-07-29T01:46:50;28.60;48.90
15609;DHT22;28705;45.642;13.758;2022-07-29T01:49:21;28.60;49.00
15609;DHT22;28705;45.642;13.758;2022-07-29T01:51:52;28.60;48.80
15609;DHT22;28705;45.642;13.758;2022-07-29T01:54:26;28.60;49.50
15609;DHT22;28705;45.642;13.758;2022-07-29T01:56:56;28.60;48.70
15609;DHT22;28705;45.642;13.758;2022-07-29T01:59:26;28.60;48.70
15609;DHT22;28705;45.642;13.758;2022-07-29T02:01:55;28.60;48.60
15609;DHT22;28705;45.642;13.758;2022-07-29T02:04:25;28.50;48.50
15609;DHT22;28705;45.642;13.758;2022-07-29T02:06:54;28.60;48.60
15609;DHT22;28705;45.642;13.758;2022-07-29T02:09:22;28.60;48.60
15609;DHT22;28705;45.642;13.758;2022-07-29T02:11:53;28.60;48.60
15609;DHT22;28705;45.642;13.758;2022-07-29T02:14:22;28.60;48.40
15609;DHT22;28705;45.642;13.758;2022-07-29T02:16:53;28.60;48.50
15609;DHT22;28705;45.642;13.758;2022-07-29T02:19:22;28.50;48.50
15609;DHT22;28705;45.642;13.758;2022-07-29T02:21:52;28.50;48.50
15609;DHT22;28705;45.642;13.758;2022-07-29T02:24:21;28.50;48.30
15609;DHT22;28705;45.642;13.758;2022-07-29T02:26:50;28.50;48.40
15609;DHT22;28705;45.642;13.758;2022-07-29T02:29:20;28.40;48.30
15609;DHT22;28705;45.642;13.758;2022-07-29T02:31:50;28.40;48.40
15609;DHT22;28705;45.642;13.758;2022-07-29T02:34:19;28.40;48.30
15609;DHT22;28705;45.642;13.758;2022-07-29T02:36:47;28.40;48.30
15609;DHT22;28705;45.642;13.758;2022-07-29T02:39:15;28.30;48.30
15609;DHT22;28705;45.642;13.758;2022-07-29T02:41:44;28.30;48.20
15609;DHT22;28705;45.642;13.758;2022-07-29T02:44:13;28.30;48.20
15609;DHT22;28705;45.642;13.758;2022-07-29T02:46:45;28.30;48.20
15609;DHT22;28705;45.642;13.758;2022-07-29T02:49:17;28.30;48.20
15609;DHT22;28705;45.642;13.758;2022-07-29T02:51:49;28.30;48.20
15609;DHT22;28705;45.642;13.758;2022-07-29T02:54:23;28.40;48.20
15609;DHT22;28705;45.642;13.758;2022-07-29T02:56:54;28.40;48.10
15609;DHT22;28705;45.642;13.758;2022-07-29T02:59:24;28.40;48.10
15609;DHT22;28705;45.642;13.758;2022-07-29T03:01:54;28.40;48.00
15609;DHT22;28705;45.642;13.758;2022-07-29T03:04:24;28.40;48.00
15609;DHT22;28705;45.642;13.758;2022-07-29T03:06:54;28.40;47.80
15609;DHT22;28705;45.642;13.758;2022-07-29T03:09:23;28.40;47.70
15609;DHT22;28705;45.642;13.758;2022-07-29T03:11:50;28.40;47.60
15609;DHT22;28705;45.642;13.758;2022-07-29T03:14:20;28.40;47.50
15609;DHT22;28705;45.642;13.758;2022-07-29T03:16:49;28.30;47.40
15609;DHT22;28705;45.642;13.758;2022-07-29T03:19:17;28.30;47.30
15609;DHT22;28705;45.642;13.758;2022-07-29T03:21:47;28.30;47.30
15609;DHT22;28705;45.642;13.758;2022-07-29T03:24:27;28.30;47.30
15609;DHT22;28705;45.642;13.758;2022-07-29T03:26:55;28.30;47.40
15609;DHT22;28705;45.642;13.758;2022-07-29T03:29:23;28.30;47.30
15609;DHT22;28705;45.642;13.758;2022-07-29T03:31:50;28.30;47.30
15609;DHT22;28705;45.642;13.758;2022-07-29T03:34:17;28.30;47.30
15609;DHT22;28705;45.642;13.758;2022-07-29T03:36:44;28.30;47.20
15609;DHT22;28705;45.642;13.758;2022-07-29T03:39:22;28.40;47.20
15609;DHT22;28705;45.642;13.758;2022-07-29T03:41:55;28.40;47.20
15609;DHT22;28705;45.642;13.758;2022-07-29T03:44:22;28.40;47.30
15609;DHT22;28705;45.642;13.758;2022-07-29T03:46:52;28.40;47.40
15609;DHT22;28705;45.642;13.758;2022-07-29T03:49:21;28.40;47.50
15609;DHT22;28705;45.642;13.758;2022-07-29T03:51:50;28.40;47.60
15609;DHT22;28705;45.642;13.758;2022-07-29T03:54:18;28.30;47.60
15609;DHT22;28705;45.642;13.758;2022-07-29T03:56:46;28.30;47.70
15609;DHT22;28705;45.642;13.758;2022-07-29T03:59:15;28.30;47.80
15609;DHT22;28705;45.642;13.758;2022-07-29T04:01:43;28.30;47.90
15609;DHT22;28705;45.642;13.758;2022-07-29T04:04:10;28.20;47.90
15609;DHT22;28705;45.642;13.758;2022-07-29T04:06:39;28.20;47.90
15609;DHT22;28705;45.642;13.758;2022-07-29T04:09:06;28.20;47.80
15609;DHT22;28705;45.642;13.758;2022-07-29T04:11:36;28.20;47.60
15609;DHT22;28705;45.642;13.758;2022-07-29T04:14:05;28.20;47.60
15609;DHT22;28705;45.642;13.758;2022-07-29T04:16:33;28.10;47.40
15609;DHT22;28705;45.642;13.758;2022-07-29T04:19:00;28.10;47.50
15609;DHT22;28705;45.642;13.758;2022-07-29T04:21:27;28.10;47.50
15609;DHT22;28705;45.642;13.758;2022-07-29T04:23:54;28.00;47.30
15609;DHT22;28705;45.642;13.758;2022-07-29T04:26:21;28.10;47.20
15609;DHT22;28705;45.642;13.758;2022-07-29T04:28:50;28.10;47.20
15609;DHT22;28705;45.642;13.758;2022-07-29T04:31:17;28.10;47.30
15609;DHT22;28705;45.642;13.758;2022-07-29T04:33:44;28.10;47.40
15609;DHT22;28705;45.642;13.758;2022-07-29T04:36:10;28.10;47.40
15609;DHT22;28705;45.642;13.758;2022-07-29T04:38:38;28.10;47.40
15609;DHT22;28705;45.642;13.758;2022-07-29T04:41:06;28.10;47.40
15609;DHT22;28705;45.642;13.758;2022-07-29T04:43:33;28.10;47.50
15609;DHT22;28705;45.642;13.758;2022-07-29T04:46:02;28.00;47.50
15609;DHT22;28705;45.642;13.758;2022-07-29T04:48:29;28.00;47.40
15609;DHT22;28705;45.642;13.758;2022-07-29T04:50:56;28.00;47.60
15609;DHT22;28705;45.642;13.758;2022-07-29T04:53:24;28.00;47.50
15609;DHT22;28705;45.642;13.758;2022-07-29T04:55:51;28.00;47.50
15609;DHT22;28705;45.642;13.758;2022-07-29T04:58:19;28.00;47.40
15609;DHT22;28705;45.642;13.758;2022-07-29T05:00:48;28.00;47.40
15609;DHT22;28705;45.642;13.758;2022-07-29T05:03:17;28.10;47.50
15609;DHT22;28705;45.642;13.758;2022-07-29T05:05:44;28.10;47.50
15609;DHT22;28705;45.642;13.758;2022-07-29T05:08:10;28.10;47.40
15609;DHT22;28705;45.642;13.758;2022-07-29T05:10:37;28.10;47.50
15609;DHT22;28705;45.642;13.758;2022-07-29T05:13:05;28.20;47.50
15609;DHT22;28705;45.642;13.758;2022-07-29T05:15:32;28.20;47.50
15609;DHT22;28705;45.642;13.758;2022-07-29T05:18:00;28.20;47.50
15609;DHT22;28705;45.642;13.758;2022-07-29T05:20:28;28.20;47.40
15609;DHT22;28705;45.642;13.758;2022-07-29T05:22:56;28.20;47.40
15609;DHT22;28705;45.642;13.758;2022-07-29T05:25:24;28.30;47.40
15609;DHT22;28705;45.642;13.758;2022-07-29T05:27:51;28.30;47.60
15609;DHT22;28705;45.642;13.758;2022-07-29T05:30:18;28.30;47.60
15609;DHT22;28705;45.642;13.758;2022-07-29T05:32:45;28.30;47.80
15609;DHT22;28705;45.642;13.758;2022-07-29T05:35:13;28.30;47.90
15609;DHT22;28705;45.642;13.758;2022-07-29T05:37:42;28.40;47.90
15609;DHT22;28705;45.642;13.758;2022-07-29T05:40:09;28.40;47.80
15609;DHT22;28705;45.642;13.758;2022-07-29T05:42:37;28.50;47.90
15609;DHT22;28705;45.642;13.758;2022-07-29T05:45:05;28.60;47.80
15609;DHT22;28705;45.642;13.758;2022-07-29T05:47:32;28.60;47.70
15609;DHT22;28705;45.642;13.758;2022-07-29T05:49:59;28.70;47.60
15609;DHT22;28705;45.642;13.758;2022-07-29T05:52:26;28.70;47.60
15609;DHT22;28705;45.642;13.758;2022-07-29T05:54:54;28.70;47.60
15609;DHT22;28705;45.642;13.758;2022-07-29T05:57:23;28.70;47.50
15609;DHT22;28705;45.642;13.758;2022-07-29T05:59:50;28.70;47.60
15609;DHT22;28705;45.642;13.758;2022-07-29T06:02:18;28.70;47.80
15609;DHT22;28705;45.642;13.758;2022-07-29T06:04:45;28.70;48.10
15609;DHT22;28705;45.642;13.758;2022-07-29T06:07:12;28.70;48.20
15609;DHT22;28705;45.642;13.758;2022-07-29T06:09:39;28.70;48.20
15609;DHT22;28705;45.642;13.758;2022-07-29T06:12:08;28.80;48.50
15609;DHT22;28705;45.642;13.758;2022-07-29T06:14:35;28.80;48.30
15609;DHT22;28705;45.642;13.758;2022-07-29T06:17:03;28.80;48.80
15609;DHT22;28705;45.642;13.758;2022-07-29T06:19:31;28.80;48.90
15609;DHT22;28705;45.642;13.758;2022-07-29T06:21:58;28.80;48.60
15609;DHT22;28705;45.642;13.758;2022-07-29T06:24:25;28.90;48.70
15609;DHT22;28705;45.642;13.758;2022-07-29T06:26:52;28.90;49.00
15609;DHT22;28705;45.642;13.758;2022-07-29T06:29:20;29.00;49.00
15609;DHT22;28705;45.642;13.758;2022-07-29T06:31:47;29.00;48.50
15609;DHT22;28705;45.642;13.758;2022-07-29T06:34:14;29.10;48.50
15609;DHT22;28705;45.642;13.758;2022-07-29T06:36:41;29.20;48.50
15609;DHT22;28705;45.642;13.758;2022-07-29T06:39:08;29.20;48.60
15609;DHT22;28705;45.642;13.758;2022-07-29T06:41:35;29.20;48.40
15609;DHT22;28705;45.642;13.758;2022-07-29T06:44:03;29.20;48.40
15609;DHT22;28705;45.642;13.758;2022-07-29T06:46:32;29.20;48.20
15609;DHT22;28705;45.642;13.758;2022-07-29T06:48:59;29.20;48.20
15609;DHT22;28705;45.642;13.758;2022-07-29T06:51:27;29.20;48.00
15609;DHT22;28705;45.642;13.758;2022-07-29T06:53:54;29.20;48.10
15609;DHT22;28705;45.642;13.758;2022-07-29T06:56:21;29.20;48.10
15609;DHT22;28705;45.642;13.758;2022-07-29T06:58:48;29.20;48.20
15609;DHT22;28705;45.642;13.758;2022-07-29T07:01:15;29.30;48.50
15609;DHT22;28705;45.642;13.758;2022-07-29T07:03:44;29.30;47.90
15609;DHT22;28705;45.642;13.758;2022-07-29T07:06:11;29.40;48.10
15609;DHT22;28705;45.642;13.758;2022-07-29T07:08:38;29.30;49.50
15609;DHT22;28705;45.642;13.758;2022-07-29T07:11:05;29.30;49.70
15609;DHT22;28705;45.642;13.758;2022-07-29T07:13:32;29.20;50.50
15609;DHT22;28705;45.642;13.758;2022-07-29T07:16:00;29.20;50.90
15609;DHT22;28705;45.642;13.758;2022-07-29T07:18:27;29.20;50.90
15609;DHT22;28705;45.642;13.758;2022-07-29T07:20:57;29.20;51.30
15609;DHT22;28705;45.642;13.758;2022-07-29T07:23:24;29.10;51.90
15609;DHT22;28705;45.642;13.758;2022-07-29T07:25:51;29.10;51.80
15609;DHT22;28705;45.642;13.758;2022-07-29T07:28:18;29.10;52.00
15609;DHT22;28705;45.642;13.758;2022-07-29T07:30:45;29.10;51.90
15609;DHT22;28705;45.642;13.758;2022-07-29T07:33:13;29.10;51.90
15609;DHT22;28705;45.642;13.758;2022-07-29T07:35:40;29.00;51.50
15609;DHT22;28705;45.642;13.758;2022-07-29T07:38:09;29.00;51.20
15609;DHT22;28705;45.642;13.758;2022-07-29T07:40:35;29.00;50.50
15609;DHT22;28705;45.642;13.758;2022-07-29T07:43:02;29.00;50.70
15609;DHT22;28705;45.642;13.758;2022-07-29T07:45:29;29.00;51.80
15609;DHT22;28705;45.642;13.758;2022-07-29T07:47:58;29.00;51.30
15609;DHT22;28705;45.642;13.758;2022-07-29T07:50:26;29.00;51.20
15609;DHT22;28705;45.642;13.758;2022-07-29T07:52:54;29.00;51.20
15609;DHT22;28705;45.642;13.758;2022-07-29T07:55:25;29.10;51.40
15609;DHT22;28705;45.642;13.758;2022-07-29T07:57:53;29.00;51.40
15609;DHT22;28705;45.642;13.758;2022-07-29T08:00:21;29.00;51.20
15609;DHT22;28705;45.642;13.758;2022-07-29T08:02:48;29.00;51.20
15609;DHT22;28705;45.642;13.758;2022-07-29T08:05:15;29.10;51.10
15609;DHT22;28705;45.642;13.758;2022-07-29T08:07:44;29.10;51.30
15609;DHT22;28705;45.642;13.758;2022-07-29T08:10:12;29.10;51.60
15609;DHT22;28705;45.642;13.758;2022-07-29T08:12:41;29.10;51.50
15609;DHT22;28705;45.642;13.758;2022-07-29T08:15:08;29.10;51.40
15609;DHT22;28705;45.642;13.758;2022-07-29T08:17:35;29.20;51.20
15609;DHT22;28705;45.642;13.758;2022-07-29T08:20:03;29.20;51.00
15609;DHT22;28705;45.642;13.758;2022-07-29T08:22:30;29.20;51.00
15609;DHT22;28705;45.642;13.758;2022-07-29T08:24:57;29.20;50.90
15609;DHT22;28705;45.642;13.758;2022-07-29T08:27:24;29.20;50.60
15609;DHT22;28705;45.642;13.758;2022-07-29T08:29:53;29.20;50.60
15609;DHT22;28705;45.642;13.758;2022-07-29T08:32:21;29.20;50.90
15609;DHT22;28705;45.642;13.758;2022-07-29T08:34:48;29.20;51.00
15609;DHT22;28705;45.642;13.758;2022-07-29T08:37:15;29.30;51.00
15609;DHT22;28705;45.642;13.758;2022-07-29T08:39:42;29.30;50.90
15609;DHT22;28705;45.642;13.758;2022-07-29T08:42:09;29.40;50.80
15609;DHT22;28705;45.642;13.758;2022-07-29T08:44:37;29.40;50.60
15609;DHT22;28705;45.642;13.758;2022-07-29T08:47:05;29.40;50.60
15609;DHT22;28705;45.642;13.758;2022-07-29T08:49:33;29.40;50.50
15609;DHT22;28705;45.642;13.758;2022-07-29T08:52:01;29.40;50.70
15609;DHT22;28705;45.642;13.758;2022-07-29T09:06:34;29.40;50.30
15609;DHT22;28705;45.642;13.758;2022-07-29T09:09:04;29.50;51.50
15609;DHT22;28705;45.642;13.758;2022-07-29T09:11:32;29.50;51.10
15609;DHT22;28705;45.642;13.758;2022-07-29T09:13:59;29.60;51.20
15609;DHT22;28705;45.642;13.758;2022-07-29T09:16:44;29.60;51.30
15609;DHT22;28705;45.642;13.758;2022-07-29T09:19:23;29.60;52.60
15609;DHT22;28705;45.642;13.758;2022-07-29T09:21:53;29.60;52.60
15609;DHT22;28705;45.642;13.758;2022-07-29T09:24:35;29.60;52.70
15609;DHT22;28705;45.642;13.758;2022-07-29T09:27:08;29.60;52.40
15609;DHT22;28705;45.642;13.758;2022-07-29T09:29:36;29.60;53.20
15609;DHT22;28705;45.642;13.758;2022-07-29T09:32:08;29.60;53.30
15609;DHT22;28705;45.642;13.758;2022-07-29T09:34:35;29.60;53.40
15609;DHT22;28705;45.642;13.758;2022-07-29T09:37:04;29.60;52.90
15609;DHT22;28705;45.642;13.758;2022-07-29T09:39:33;29.60;52.50
15609;DHT22;28705;45.642;13.758;2022-07-29T09:42:02;29.60;52.50
15609;DHT22;28705;45.642;13.758;2022-07-29T09:44:42;29.70;52.50
15609;DHT22;28705;45.642;13.758;2022-07-29T09:47:09;29.70;52.50
15609;DHT22;28705;45.642;13.758;2022-07-29T09:49:50;29.70;52.60
15609;DHT22;28705;45.642;13.758;2022-07-29T09:52:19;29.70;52.70
15609;DHT22;28705;45.642;13.758;2022-07-29T09:54:46;29.70;52.70
15609;DHT22;28705;45.642;13.758;2022-07-29T09:57:24;29.70;52.60
15609;DHT22;28705;45.642;13.758;2022-07-29T09:59:58;29.70;52.90
15609;DHT22;28705;45.642;13.758;2022-07-29T10:02:29;29.70;53.20
15609;DHT22;28705;45.642;13.758;2022-07-29T10:04:57;29.70;52.80
15609;DHT22;28705;45.642;13.758;2022-07-29T10:07:25;29.70;52.50
15609;DHT22;28705;45.642;13.758;2022-07-29T10:09:53;29.70;52.40
15609;DHT22;28705;45.642;13.758;2022-07-29T10:12:21;29.70;52.40
15609;DHT22;28705;45.642;13.758;2022-07-29T10:14:49;29.70;52.40
15609;DHT22;28705;45.642;13.758;2022-07-29T10:17:17;29.70;52.50
15609;DHT22;28705;45.642;13.758;2022-07-29T10:19:44;29.70;52.60
15609;DHT22;28705;45.642;13.758;2022-07-29T10:22:11;29.70;52.60
15609;DHT22;28705;45.642;13.758;2022-07-29T10:24:40;29.70;52.60
15609;DHT22;28705;45.642;13.758;2022-07-29T10:27:08;29.70;52.70
15609;DHT22;28705;45.642;13.758;2022-07-29T10:29:35;29.70;52.90
15609;DHT22;28705;45.642;13.758;2022-07-29T10:32:17;29.70;53.00
15609;DHT22;28705;45.642;13.758;2022-07-29T10:35:01;29.70;53.10
15609;DHT22;28705;45.642;13.758;2022-07-29T10:37:40;29.70;53.00
15609;DHT22;28705;45.642;13.758;2022-07-29T10:40:25;29.70;53.10
15609;DHT22;28705;45.642;13.758;2022-07-29T10:43:17;29.70;53.10
15609;DHT22;28705;45.642;13.758;2022-07-29T10:45:47;29.70;53.10
15609;DHT22;28705;45.642;13.758;2022-07-29T10:48:14;29.80;53.30
15609;DHT22;28705;45.642;13.758;2022-07-29T10:50:55;29.80;53.30
15609;DHT22;28705;45.642;13.758;2022-07-29T10:53:24;29.80;53.40
15609;DHT22;28705;45.642;13.758;2022-07-29T10:56:23;29.80;53.40
15609;DHT22;28705;45.642;13.758;2022-07-29T10:59:24;29.80;53.50
15609;DHT22;28705;45.642;13.758;2022-07-29T11:01:53;29.80;53.50
15609;DHT22;28705;45.642;13.758;2022-07-29T11:04:58;29.80;53.50
15609;DHT22;28705;45.642;13.758;2022-07-29T11:07:26;29.80;53.50
15609;DHT22;28705;45.642;13.758;2022-07-29T11:10:20;29.80;53.60
15609;DHT22;28705;45.642;13.758;2022-07-29T11:12:48;29.80;53.60
15609;DHT22;28705;45.642;13.758;2022-07-29T11:15:18;29.80;53.70
15609;DHT22;28705;45.642;13.758;2022-07-29T11:18:07;29.80;53.60
15609;DHT22;28705;45.642;13.758;2022-07-29T11:20:37;29.80;53.60
15609;DHT22;28705;45.642;13.758;2022-07-29T11:23:21;29.80;53.50
15609;DHT22;28705;45.642;13.758;2022-07-29T11:26:14;29.80;53.50
15609;DHT22;28705;45.642;13.758;2022-07-29T11:28:57;29.80;53.50
15609;DHT22;28705;45.642;13.758;2022-07-29T11:31:37;29.80;53.40
15609;DHT22;28705;45.642;13.758;2022-07-29T11:34:21;29.80;53.40
15609;DHT22;28705;45.642;13.758;2022-07-29T11:40:24;29.80;53.40
15609;DHT22;28705;45.642;13.758;2022-07-29T11:42:51;29.90;53.60
15609;DHT22;28705;45.642;13.758;2022-07-29T11:45:24;29.90;53.40
15609;DHT22;28705;45.642;13.758;2022-07-29T11:47:58;29.90;53.30
15609;DHT22;28705;45.642;13.758;2022-07-29T11:50:30;29.90;53.10
15609;DHT22;28705;45.642;13.758;2022-07-29T11:52:58;29.90;53.00
15609;DHT22;28705;45.642;13.758;2022-07-29T11:55:25;29.90;52.90
15609;DHT22;28705;45.642;13.758;2022-07-29T11:57:54;29.90;52.80
15609;DHT22;28705;45.642;13.758;2022-07-29T12:00:26;29.90;52.90
15609;DHT22;28705;45.642;13.758;2022-07-29T12:02:53;29.90;52.80
15609;DHT22;28705;45.642;13.758;2022-07-29T12:05:21;29.90;52.70
15609;DHT22;28705;45.642;13.758;2022-07-29T12:07:48;29.90;52.70
15609;DHT22;28705;45.642;13.758;2022-07-29T12:10:15;29.90;52.60
15609;DHT22;28705;45.642;13.758;2022-07-29T12:12:42;29.90;52.40
15609;DHT22;28705;45.642;13.758;2022-07-29T12:15:14;29.90;52.40
15609;DHT22;28705;45.642;13.758;2022-07-29T12:17:44;29.90;52.30
15609;DHT22;28705;45.642;13.758;2022-07-29T12:20:11;29.90;52.30
15609;DHT22;28705;45.642;13.758;2022-07-29T12:22:42;29.90;52.40
15609;DHT22;28705;45.642;13.758;2022-07-29T12:25:11;29.90;52.50
15609;DHT22;28705;45.642;13.758;2022-07-29T12:27:41;29.90;52.60
15609;DHT22;28705;45.642;13.758;2022-07-29T12:30:11;29.90;52.80
15609;DHT22;28705;45.642;13.758;2022-07-29T12:32:39;29.90;53.00
15609;DHT22;28705;45.642;13.758;2022-07-29T12:35:10;29.90;52.80
15609;DHT22;28705;45.642;13.758;2022-07-29T12:37:39;29.90;53.00
15609;DHT22;28705;45.642;13.758;2022-07-29T12:40:07;30.00;53.80
15609;DHT22;28705;45.642;13.758;2022-07-29T12:42:36;30.00;53.60
15609;DHT22;28705;45.642;13.758;2022-07-29T12:45:04;30.10;54.30
15609;DHT22;28705;45.642;13.758;2022-07-29T12:47:31;30.10;54.60
15609;DHT22;28705;45.642;13.758;2022-07-29T12:50:10;30.20;54.90
15609;DHT22;28705;45.642;13.758;2022-07-29T12:52:37;30.20;55.00
15609;DHT22;28705;45.642;13.758;2022-07-29T12:55:05;30.20;55.00
15609;DHT22;28705;45.642;13.758;2022-07-29T12:57:32;30.20;55.10
15609;DHT22;28705;45.642;13.758;2022-07-29T13:00:13;30.20;55.20
15609;DHT22;28705;45.642;13.758;2022-07-29T13:02:41;30.20;55.20
15609;DHT22;28705;45.642;13.758;2022-07-29T13:05:11;30.20;55.40
15609;DHT22;28705;45.642;13.758;2022-07-29T13:07:39;30.20;55.60
15609;DHT22;28705;45.642;13.758;2022-07-29T13:10:14;30.20;55.70
15609;DHT22;28705;45.642;13.758;2022-07-29T13:13:12;30.20;55.90
15609;DHT22;28705;45.642;13.758;2022-07-29T13:15:40;30.30;55.90
15609;DHT22;28705;45.642;13.758;2022-07-29T13:18:26;30.40;55.80
15609;DHT22;28705;45.642;13.758;2022-07-29T13:20:57;30.40;55.70
15609;DHT22;28705;45.642;13.758;2022-07-29T13:23:30;30.40;55.20
15609;DHT22;28705;45.642;13.758;2022-07-29T13:26:05;30.40;54.40
15609;DHT22;28705;45.642;13.758;2022-07-29T13:28:32;30.40;54.30
15609;DHT22;28705;45.642;13.758;2022-07-29T13:30:59;30.40;54.30
15609;DHT22;28705;45.642;13.758;2022-07-29T13:33:26;30.30;54.20
15609;DHT22;28705;45.642;13.758;2022-07-29T13:35:55;30.30;54.30
15609;DHT22;28705;45.642;13.758;2022-07-29T13:38:22;30.30;54.40
15609;DHT22;28705;45.642;13.758;2022-07-29T13:40:49;30.30;54.40
15609;DHT22;28705;45.642;13.758;2022-07-29T13:43:16;30.30;54.70
15609;DHT22;28705;45.642;13.758;2022-07-29T13:45:43;30.30;54.50
15609;DHT22;28705;45.642;13.758;2022-07-29T13:48:10;30.30;54.50
15609;DHT22;28705;45.642;13.758;2022-07-29T13:50:37;30.30;54.50
15609;DHT22;28705;45.642;13.758;2022-07-29T13:53:05;30.30;54.50
15609;DHT22;28705;45.642;13.758;2022-07-29T13:55:32;30.30;54.40
15609;DHT22;28705;45.642;13.758;2022-07-29T13:57:59;30.30;54.40
15609;DHT22;28705;45.642;13.758;2022-07-29T14:00:26;30.30;54.40
15609;DHT22;28705;45.642;13.758;2022-07-29T14:02:54;30.30;54.50
15609;DHT22;28705;45.642;13.758;2022-07-29T14:05:21;30.30;54.50
15609;DHT22;28705;45.642;13.758;2022-07-29T14:07:48;30.30;55.20
15609;DHT22;28705;45.642;13.758;2022-07-29T14:10:16;30.30;54.40
15609;DHT22;28705;45.642;13.758;2022-07-29T14:12:43;30.30;54.90
15609;DHT22;28705;45.642;13.758;2022-07-29T14:15:10;30.40;54.70
15609;DHT22;28705;45.642;13.758;2022-07-29T14:17:37;30.40;54.20
15609;DHT22;28705;45.642;13.758;2022-07-29T14:20:05;30.40;54.20
15609;DHT22;28705;45.642;13.758;2022-07-29T14:22:32;30.50;54.00
15609;DHT22;28705;45.642;13.758;2022-07-29T14:24:59;30.50;53.70
15609;DHT22;28705;45.642;13.758;2022-07-29T14:27:27;30.50;53.60
15609;DHT22;28705;45.642;13.758;2022-07-29T14:29:54;30.50;53.80
15609;DHT22;28705;45.642;13.758;2022-07-29T14:32:21;30.40;54.20
15609;DHT22;28705;45.642;13.758;2022-07-29T14:34:48;30.40;53.70
15609;DHT22;28705;45.642;13.758;2022-07-29T14:37:15;30.40;54.10
15609;DHT22;28705;45.642;13.758;2022-07-29T14:39:42;30.40;54.20
15609;DHT22;28705;45.642;13.758;2022-07-29T14:42:09;30.50;54.20
15609;DHT22;28705;45.642;13.758;2022-07-29T14:44:38;30.50;53.50
15609;DHT22;28705;45.642;13.758;2022-07-29T14:47:05;30.60;52.60
15609;DHT22;28705;45.642;13.758;2022-07-29T14:49:32;30.60;52.30
15609;DHT22;28705;45.642;13.758;2022-07-29T14:51:59;30.70;52.50
15609;DHT22;28705;45.642;13.758;2022-07-29T14:54:26;30.70;52.30
15609;DHT22;28705;45.642;13.758;2022-07-29T14:56:53;30.70;52.20
15609;DHT22;28705;45.642;13.758;2022-07-29T14:59:22;30.80;52.40
15609;DHT22;28705;45.642;13.758;2022-07-29T15:01:50;30.80;52.30
15609;DHT22;28705;45.642;13.758;2022-07-29T15:04:17;30.80;52.30
15609;DHT22;28705;45.642;13.758;2022-07-29T15:06:44;30.70;52.00
15609;DHT22;28705;45.642;13.758;2022-07-29T15:09:11;30.70;51.90
15609;DHT22;28705;45.642;13.758;2022-07-29T15:11:38;30.70;50.70
15609;DHT22;28705;45.642;13.758;2022-07-29T15:14:06;30.70;50.70
15609;DHT22;28705;45.642;13.758;2022-07-29T15:16:34;30.70;50.60
15609;DHT22;28705;45.642;13.758;2022-07-29T15:19:03;30.70;51.90
15609;DHT22;28705;45.642;13.758;2022-07-29T15:21:30;30.70;51.80
15609;DHT22;28705;45.642;13.758;2022-07-29T15:23:57;30.60;51.70
15609;DHT22;28705;45.642;13.758;2022-07-29T15:26:24;30.60;51.30
15609;DHT22;28705;45.642;13.758;2022-07-29T15:28:51;30.60;51.10
15609;DHT22;28705;45.642;13.758;2022-07-29T15:31:18;30.50;51.00
15609;DHT22;28705;45.642;13.758;2022-07-29T15:33:45;30.50;51.00
15609;DHT22;28705;45.642;13.758;2022-07-29T15:36:13;30.50;51.50
15609;DHT22;28705;45.642;13.758;2022-07-29T15:38:40;30.50;51.70
15609;DHT22;28705;45.642;13.758;2022-07-29T15:41:07;30.50;52.10
15609;DHT22;28705;45.642;13.758;2022-07-29T15:43:34;30.50;51.90
15609;DHT22;28705;45.642;13.758;2022-07-29T15:46:01;30.50;52.00